createdAt,value
2022-11-03T00:01:06.798Z,14.77
2022-11-03T00:03:33.114Z,13.38
2022-11-03T00:06:05.660Z,13.68
2022-11-03T00:08:33.503Z,19.92
2022-11-03T00:11:07.416Z,11.82
2022-11-03T00:13:34.355Z,15.38
2022-11-03T00:16:00.752Z,17.23
2022-11-03T00:18:27.135Z,12.95
2022-11-03T00:20:57.450Z,15.68
2022-11-03T00:23:25.068Z,17.05
2022-11-03T00:25:51.389Z,11.75
2022-11-03T00:28:17.695Z,17.25
2022-11-03T00:30:44.044Z,16.02
2022-11-03T00:33:10.408Z,13.80
2022-11-03T00:35:36.769Z,17.45
2022-11-03T00:38:03.082Z,16.05
2022-11-03T00:40:29.378Z,14.30
2022-11-03T00:42:55.761Z,15.88
2022-11-03T00:45:22.074Z,13.43
2022-11-03T00:48:07.086Z,13.88
2022-11-03T00:50:33.901Z,19.57
2022-11-03T00:53:00.209Z,14.05
2022-11-03T00:55:26.543Z,14.60
2022-11-03T00:57:53.261Z,14.75
2022-11-03T01:00:19.778Z,11.88
2022-11-03T01:02:46.127Z,16.17
2022-11-03T01:05:31.347Z,13.85
2022-11-03T01:10:28.906Z,10.07
2022-11-03T01:12:55.286Z,11.68
2022-11-03T01:15:21.585Z,17.35
2022-11-03T01:17:47.886Z,16.63
2022-11-03T01:20:14.363Z,13.93
2022-11-03T01:22:40.739Z,15.65
2022-11-03T01:25:07.244Z,17.10
2022-11-03T01:27:34.626Z,14.80
2022-11-03T01:30:00.954Z,11.38
2022-11-03T01:32:27.945Z,9.27
2022-11-03T01:34:54.487Z,15.68
2022-11-03T01:37:20.852Z,10.52
2022-11-03T01:39:47.168Z,15.20
2022-11-03T01:42:14.622Z,10.55
2022-11-03T01:44:47.428Z,17.55
2022-11-03T01:47:13.748Z,14.50
2022-11-03T01:49:40.112Z,12.20
2022-11-03T01:52:09.748Z,13.23
2022-11-03T01:54:37.451Z,8.15
2022-11-03T01:57:05.979Z,12.00
2022-11-03T01:59:32.527Z,10.80
2022-11-03T02:01:59.050Z,17.92
2022-11-03T02:04:30.453Z,13.10
2022-11-03T02:07:05.008Z,15.18
2022-11-03T02:09:31.679Z,11.38
2022-11-03T02:12:07.311Z,5.90
2022-11-03T02:14:45.621Z,14.77
2022-11-03T02:17:13.400Z,10.98
2022-11-03T02:19:48.928Z,13.65
2022-11-03T02:24:52.924Z,7.57
2022-11-03T02:27:20.776Z,15.65
2022-11-03T02:29:47.239Z,14.30
2022-11-03T02:32:23.969Z,11.02
2022-11-03T02:34:56.030Z,14.40
2022-11-03T02:37:30.456Z,9.68
2022-11-03T02:39:58.770Z,8.48
2022-11-03T02:42:25.985Z,6.55
2022-11-03T02:44:53.707Z,11.05
2022-11-03T02:47:21.217Z,13.77
2022-11-03T02:49:48.875Z,18.60
2022-11-03T02:52:35.543Z,16.00
2022-11-03T02:55:06.673Z,10.95
2022-11-03T02:57:36.844Z,11.27
2022-11-03T03:00:06.453Z,14.45
2022-11-03T03:02:36.057Z,16.90
2022-11-03T03:05:03.879Z,9.43
2022-11-03T03:07:39.029Z,13.57
2022-11-03T03:10:07.921Z,9.13
2022-11-03T03:12:35.854Z,15.70
2022-11-03T03:15:03.769Z,14.50
2022-11-03T03:17:30.102Z,9.80
2022-11-03T03:20:01.801Z,10.85
2022-11-03T03:22:31.132Z,11.65
2022-11-03T03:25:06.775Z,18.85
2022-11-03T03:27:34.376Z,12.40
2022-11-03T03:30:04.099Z,18.73
2022-11-03T03:32:31.549Z,16.15
2022-11-03T03:34:58.537Z,11.98
2022-11-03T03:37:25.823Z,16.98
2022-11-03T03:39:53.345Z,10.35
2022-11-03T03:42:20.934Z,12.80
2022-11-03T03:44:47.854Z,10.43
2022-11-03T03:47:19.393Z,10.98
2022-11-03T03:49:45.838Z,8.63
2022-11-03T03:52:12.349Z,10.27
2022-11-03T03:54:38.673Z,13.82
2022-11-03T03:57:05.922Z,10.43
2022-11-03T03:59:32.363Z,10.50
2022-11-03T04:01:59.179Z,12.73
2022-11-03T04:04:25.577Z,11.23
2022-11-03T04:07:11.977Z,9.18
2022-11-03T04:09:38.291Z,8.93
2022-11-03T04:12:23.531Z,11.88
2022-11-03T04:15:08.378Z,19.33
2022-11-03T04:17:53.496Z,14.43
2022-11-03T04:20:38.172Z,10.07
2022-11-03T04:23:04.542Z,11.05
2022-11-03T04:25:30.907Z,15.02
2022-11-03T04:27:57.261Z,8.82
2022-11-03T04:30:25.067Z,9.85
2022-11-03T04:32:51.626Z,11.85
2022-11-03T04:35:24.879Z,9.88
2022-11-03T04:37:54.255Z,10.10
2022-11-03T04:40:20.669Z,12.60
2022-11-03T04:42:47.735Z,13.70
2022-11-03T04:45:25.156Z,12.30
2022-11-03T04:47:51.940Z,12.60
2022-11-03T04:50:19.616Z,11.75
2022-11-03T04:52:51.551Z,12.43
2022-11-03T04:55:18.570Z,8.05
2022-11-03T04:57:45.180Z,11.55
2022-11-03T05:00:18.712Z,12.05
2022-11-03T05:02:46.610Z,11.32
2022-11-03T05:05:17.554Z,9.65
2022-11-03T05:07:44.119Z,12.85
2022-11-03T05:10:14.669Z,9.02
2022-11-03T05:12:41.177Z,12.65
2022-11-03T05:15:11.326Z,9.98
2022-11-03T05:17:37.650Z,8.90
2022-11-03T05:20:04.228Z,11.27
2022-11-03T05:22:34.050Z,10.15
2022-11-03T05:25:10.647Z,17.08
2022-11-03T05:27:36.955Z,8.77
2022-11-03T05:30:04.694Z,10.77
2022-11-03T05:32:33.026Z,3.80
2022-11-03T05:34:59.459Z,9.32
2022-11-03T05:37:27.108Z,7.32
2022-11-03T05:39:55.320Z,11.85
2022-11-03T05:42:39.693Z,7.13
2022-11-03T05:45:23.348Z,7.80
2022-11-03T05:47:50.412Z,10.85
2022-11-03T05:50:20.070Z,6.72
2022-11-03T05:52:47.191Z,10.57
2022-11-03T05:55:20.617Z,6.32
2022-11-03T05:57:46.996Z,5.13
2022-11-03T06:00:25.365Z,4.45
2022-11-03T06:02:51.704Z,4.72
2022-11-03T06:05:22.431Z,4.32
2022-11-03T06:07:49.577Z,4.88
2022-11-03T06:10:21.278Z,7.28
2022-11-03T06:12:47.728Z,14.55
2022-11-03T06:15:24.012Z,7.03
2022-11-03T06:17:51.443Z,12.18
2022-11-03T06:20:20.831Z,10.82
2022-11-03T06:22:48.709Z,9.07
2022-11-03T06:25:23.922Z,4.55
2022-11-03T06:27:51.314Z,6.18
2022-11-03T06:30:29.303Z,13.38
2022-11-03T06:33:00.322Z,4.55
2022-11-03T06:35:26.682Z,7.68
2022-11-03T06:37:53.852Z,15.35
2022-11-03T06:40:20.147Z,10.23
2022-11-03T06:42:46.492Z,9.20
2022-11-03T06:45:12.950Z,12.98
2022-11-03T06:47:40.180Z,8.88
2022-11-03T06:50:21.923Z,11.43
2022-11-03T06:55:31.134Z,13.57
2022-11-03T06:58:19.786Z,8.63
2022-11-03T07:00:51.021Z,9.32
2022-11-03T07:03:18.169Z,6.95
2022-11-03T07:05:47.799Z,8.57
2022-11-03T07:08:14.121Z,16.67
2022-11-03T07:10:40.510Z,11.57
2022-11-03T07:13:13.424Z,8.30
2022-11-03T07:15:40.505Z,7.47
2022-11-03T07:18:20.905Z,13.93
2022-11-03T07:20:47.645Z,12.07
2022-11-03T07:23:16.910Z,7.95
2022-11-03T07:25:44.048Z,5.32
2022-11-03T07:28:10.563Z,8.80
2022-11-03T07:30:36.877Z,10.27
2022-11-03T07:33:12.314Z,16.48
2022-11-03T07:36:12.988Z,10.48
2022-11-03T07:38:29.765Z,9.38
2022-11-03T07:40:57.576Z,13.73
2022-11-03T07:43:36.748Z,7.03
2022-11-03T07:46:03.778Z,11.48
2022-11-03T07:48:36.070Z,10.77
2022-11-03T07:51:21.500Z,10.05
2022-11-03T07:53:48.819Z,7.03
2022-11-03T07:56:19.828Z,10.43
2022-11-03T07:58:46.872Z,10.15
2022-11-03T08:01:36.472Z,9.27
2022-11-03T08:04:07.348Z,8.05
2022-11-03T08:06:33.747Z,13.32
2022-11-03T08:09:00.180Z,5.97
2022-11-03T08:11:29.213Z,10.75
2022-11-03T08:13:56.262Z,9.13
2022-11-03T08:16:22.719Z,13.20
2022-11-03T08:18:49.085Z,6.78
2022-11-03T08:21:17.341Z,7.70
2022-11-03T08:23:47.420Z,10.38
2022-11-03T08:26:14.334Z,6.22
2022-11-03T08:28:40.710Z,4.28
2022-11-03T08:31:12.175Z,11.93
2022-11-03T08:33:39.592Z,8.13
2022-11-03T08:36:06.141Z,11.27
2022-11-03T08:38:32.543Z,8.82
2022-11-03T08:40:58.892Z,8.48
2022-11-03T08:43:25.381Z,8.15
2022-11-03T08:45:53.658Z,7.35
2022-11-03T08:48:29.537Z,10.63
2022-11-03T08:50:56.458Z,6.22
2022-11-03T08:53:24.101Z,4.10
2022-11-03T08:55:50.453Z,5.97
2022-11-03T08:58:16.846Z,6.53
2022-11-03T09:00:43.416Z,10.70
2022-11-03T09:03:09.845Z,8.52
2022-11-03T09:05:36.376Z,11.65
2022-11-03T09:10:49.400Z,10.77
2022-11-03T09:13:15.807Z,6.85
2022-11-03T09:15:42.140Z,4.35
2022-11-03T09:18:08.795Z,5.75
2022-11-03T09:20:35.296Z,4.15
2022-11-03T09:23:01.721Z,5.18
2022-11-03T09:25:28.133Z,7.38
2022-11-03T09:27:54.435Z,5.47
2022-11-03T09:30:21.289Z,5.90
2022-11-03T09:32:48.093Z,5.10
2022-11-03T09:35:14.773Z,7.55
2022-11-03T09:37:41.157Z,5.13
2022-11-03T09:40:09.495Z,7.60
2022-11-03T09:42:36.390Z,8.73
2022-11-03T09:45:02.918Z,5.15
2022-11-03T09:47:32.427Z,8.65
2022-11-03T09:49:59.180Z,6.00
2022-11-03T09:52:25.642Z,4.00
2022-11-03T09:54:53.188Z,3.53
2022-11-03T09:57:19.752Z,6.65
2022-11-03T09:59:47.634Z,7.28
2022-11-03T10:02:34.283Z,5.90
2022-11-03T10:05:05.475Z,5.50
2022-11-03T10:07:34.989Z,4.53
2022-11-03T10:10:01.493Z,4.78
2022-11-03T10:12:31.476Z,9.02
2022-11-03T10:14:57.852Z,5.53
2022-11-03T10:17:26.658Z,7.10
2022-11-03T10:19:55.621Z,5.03
2022-11-03T10:22:22.432Z,6.63
2022-11-03T10:24:49.413Z,7.28
2022-11-03T10:27:22.586Z,7.10
2022-11-03T10:30:07.590Z,4.40
2022-11-03T10:32:34.830Z,6.00
2022-11-03T10:35:01.200Z,5.75
2022-11-03T10:37:28.498Z,8.27
2022-11-03T10:39:55.812Z,5.82
2022-11-03T10:42:23.384Z,4.78
2022-11-03T10:44:51.878Z,7.97
2022-11-03T10:47:25.808Z,5.65
2022-11-03T10:49:55.051Z,6.00
2022-11-03T10:52:25.835Z,6.85
2022-11-03T10:54:53.598Z,6.60
2022-11-03T10:57:20.511Z,7.15
2022-11-03T10:59:48.831Z,6.03
2022-11-03T11:02:20.202Z,3.80
2022-11-03T11:04:59.127Z,6.78
2022-11-03T11:07:29.402Z,10.23
2022-11-03T11:09:55.778Z,5.03
2022-11-03T11:12:23.323Z,4.45
2022-11-03T11:14:53.889Z,7.15
2022-11-03T11:17:39.945Z,6.25
2022-11-03T11:22:32.667Z,7.80
2022-11-03T11:24:59.692Z,7.40
2022-11-03T11:27:31.985Z,7.95
2022-11-03T11:29:58.922Z,5.57
2022-11-03T11:32:48.735Z,6.45
2022-11-03T11:35:18.414Z,4.60
2022-11-03T11:37:44.816Z,8.32
2022-11-03T11:40:12.080Z,5.57
2022-11-03T11:42:58.569Z,4.15
2022-11-03T11:45:44.087Z,5.15
2022-11-03T11:48:18.970Z,4.50
2022-11-03T11:50:45.904Z,4.88
2022-11-03T11:53:20.185Z,6.30
2022-11-03T11:55:59.748Z,6.75
2022-11-03T11:58:29.323Z,4.00
2022-11-03T12:01:00.602Z,4.00
2022-11-03T12:03:29.463Z,4.47
2022-11-03T12:05:56.144Z,3.17
2022-11-03T12:08:28.585Z,4.35
2022-11-03T12:10:56.420Z,4.40
2022-11-03T12:13:43.092Z,5.25
2022-11-03T12:16:10.474Z,8.15
2022-11-03T12:18:40.796Z,3.65
2022-11-03T12:21:14.646Z,6.57
2022-11-03T12:23:45.488Z,5.35
2022-11-03T12:26:34.812Z,3.78
2022-11-03T12:29:01.144Z,2.75
2022-11-03T12:31:30.527Z,5.68
2022-11-03T12:33:59.308Z,7.15
2022-11-03T12:36:25.666Z,3.00
2022-11-03T12:38:53.177Z,4.07
2022-11-03T12:41:22.441Z,5.18
2022-11-03T12:43:58.174Z,6.20
2022-11-03T12:46:24.776Z,5.60
2022-11-03T12:48:51.273Z,5.38
2022-11-03T12:51:18.340Z,4.35
2022-11-03T12:53:44.841Z,5.63
2022-11-03T12:56:11.900Z,4.70
2022-11-03T12:58:38.639Z,3.38
2022-11-03T13:01:05.617Z,8.13
2022-11-03T13:03:32.697Z,5.55
2022-11-03T13:05:59.336Z,3.33
2022-11-03T13:08:25.886Z,4.28
2022-11-03T13:10:52.469Z,8.18
2022-11-03T13:13:21.948Z,6.68
2022-11-03T13:15:55.592Z,6.18
2022-11-03T13:18:22.560Z,6.68
2022-11-03T13:20:48.901Z,5.07
2022-11-03T13:23:17.518Z,5.30
2022-11-03T13:25:46.794Z,7.10
2022-11-03T13:28:13.436Z,6.68
2022-11-03T13:30:41.431Z,4.45
2022-11-03T13:33:08.641Z,7.00
2022-11-03T13:35:38.046Z,5.47
2022-11-03T13:38:06.926Z,6.75
2022-11-03T13:40:55.556Z,6.82
2022-11-03T13:43:19.644Z,5.05
2022-11-03T13:45:46.072Z,9.27
2022-11-03T13:51:00.264Z,4.55
2022-11-03T13:56:20.932Z,4.38
2022-11-03T14:01:35.264Z,10.38
2022-11-03T14:06:48.766Z,6.90
2022-11-03T14:09:15.346Z,7.13
2022-11-03T14:12:20.227Z,8.52
2022-11-03T14:14:46.624Z,5.70
2022-11-03T14:17:12.967Z,10.93
2022-11-03T14:19:44.011Z,5.15
2022-11-03T14:22:12.498Z,8.18
2022-11-03T14:24:38.872Z,8.18
2022-11-03T14:27:05.328Z,7.57
2022-11-03T14:29:31.741Z,10.48
2022-11-03T14:31:58.095Z,11.40
2022-11-03T14:34:24.547Z,8.35
2022-11-03T14:36:50.975Z,14.95
2022-11-03T14:39:17.475Z,9.80
2022-11-03T14:42:02.736Z,10.45
2022-11-03T14:44:39.644Z,12.07
2022-11-03T14:47:07.312Z,13.73
2022-11-03T14:49:34.201Z,9.32
2022-11-03T14:52:04.480Z,9.27
2022-11-03T14:54:31.260Z,15.98
2022-11-03T14:56:58.062Z,10.23
2022-11-03T14:59:24.797Z,12.55
2022-11-03T15:01:52.150Z,11.90
2022-11-03T15:04:18.940Z,8.30
2022-11-03T15:06:45.436Z,10.45
2022-11-03T15:09:16.913Z,14.63
2022-11-03T15:11:43.947Z,11.88
2022-11-03T15:14:10.780Z,8.15
2022-11-03T15:16:37.827Z,11.60
2022-11-03T15:19:05.126Z,13.63
2022-11-03T15:21:31.895Z,11.32
2022-11-03T15:26:50.282Z,13.85
2022-11-03T15:29:17.549Z,10.95
2022-11-03T15:31:47.880Z,15.45
2022-11-03T15:34:15.308Z,12.80
2022-11-03T15:36:44.601Z,14.48
2022-11-03T15:39:11.026Z,7.53
2022-11-03T15:41:40.417Z,8.50
2022-11-03T15:44:06.860Z,14.30
2022-11-03T15:46:33.603Z,14.88
2022-11-03T15:49:00.664Z,16.88
2022-11-03T15:51:27.060Z,12.25
2022-11-03T15:53:58.488Z,16.10
2022-11-03T15:56:26.086Z,37.33
2022-11-03T15:58:52.456Z,15.60
2022-11-03T16:01:18.949Z,13.07
2022-11-03T16:03:45.419Z,12.98
2022-11-03T16:06:11.869Z,12.88
2022-11-03T16:08:38.194Z,11.85
2022-11-03T16:11:04.674Z,16.23
2022-11-03T16:13:30.968Z,15.50
2022-11-03T16:15:57.459Z,13.23
2022-11-03T16:18:23.977Z,12.52
2022-11-03T16:20:51.648Z,17.98
2022-11-03T16:23:18.027Z,12.20
2022-11-03T16:25:44.412Z,19.10
2022-11-03T16:28:10.937Z,15.13
2022-11-03T16:30:38.683Z,12.07
2022-11-03T16:33:05.406Z,10.80
2022-11-03T16:35:31.766Z,11.38
2022-11-03T16:37:58.123Z,14.48
2022-11-03T16:40:24.422Z,12.52
2022-11-03T16:42:50.818Z,15.90
2022-11-03T16:45:18.532Z,15.60
2022-11-03T16:47:46.047Z,15.30
2022-11-03T16:50:12.692Z,15.10
2022-11-03T16:52:39.088Z,19.73
2022-11-03T16:55:05.891Z,13.68
2022-11-03T16:57:32.217Z,13.32
2022-11-03T16:59:58.615Z,15.73
2022-11-03T17:02:25.061Z,12.82
2022-11-03T17:04:51.419Z,12.88
2022-11-03T17:07:17.939Z,15.57
2022-11-03T17:09:44.236Z,13.80
2022-11-03T17:12:10.604Z,12.98
2022-11-03T17:14:37.092Z,14.15
2022-11-03T17:17:03.430Z,16.38
2022-11-03T17:19:29.735Z,13.20
2022-11-03T17:21:56.129Z,14.15
2022-11-03T17:24:22.512Z,14.27
2022-11-03T17:26:59.906Z,14.18
2022-11-03T17:29:37.192Z,12.65
2022-11-03T17:32:06.017Z,15.65
2022-11-03T17:34:32.472Z,15.57
2022-11-03T17:36:58.857Z,18.17
2022-11-03T17:39:30.166Z,15.18
2022-11-03T17:42:15.852Z,19.73
2022-11-03T17:44:47.380Z,14.95
2022-11-03T17:47:15.046Z,18.50
2022-11-03T17:49:41.873Z,19.13
2022-11-03T17:52:17.376Z,19.55
2022-11-03T17:54:43.736Z,20.60
2022-11-03T17:57:13.471Z,17.95
2022-11-03T17:59:40.456Z,19.08
2022-11-03T18:02:12.307Z,17.00
2022-11-03T18:04:38.700Z,15.35
2022-11-03T18:07:10.281Z,18.90
2022-11-03T18:09:36.585Z,18.30
2022-11-03T18:12:21.743Z,16.33
2022-11-03T18:14:48.093Z,21.43
2022-11-03T18:17:14.399Z,19.75
2022-11-03T18:19:40.775Z,19.75
2022-11-03T18:22:08.420Z,23.92
2022-11-03T18:24:34.834Z,20.67
2022-11-03T18:27:01.449Z,18.42
2022-11-03T18:29:27.806Z,20.30
2022-11-03T18:31:54.207Z,21.15
2022-11-03T18:34:24.745Z,16.98
2022-11-03T18:36:52.831Z,16.73
2022-11-03T18:39:22.265Z,20.63
2022-11-03T18:41:48.586Z,15.90
2022-11-03T18:44:17.787Z,18.98
2022-11-03T18:46:44.340Z,20.02
2022-11-03T18:49:10.881Z,19.55
2022-11-03T18:51:37.284Z,17.00
2022-11-03T18:54:03.953Z,15.88
2022-11-03T18:56:34.162Z,15.43
2022-11-03T18:59:03.706Z,15.00
2022-11-03T19:01:30.189Z,18.27
2022-11-03T19:03:56.678Z,25.13
2022-11-03T19:06:24.366Z,20.20
2022-11-03T19:08:52.913Z,13.02
2022-11-03T19:11:19.254Z,16.05
2022-11-03T19:13:47.129Z,16.60
2022-11-03T19:16:13.579Z,16.63
2022-11-03T19:18:40.468Z,15.48
2022-11-03T19:21:12.396Z,12.82
2022-11-03T19:23:38.940Z,15.00
2022-11-03T19:26:05.443Z,15.40
2022-11-03T19:28:34.308Z,11.70
2022-11-03T19:31:00.860Z,12.35
2022-11-03T19:33:29.146Z,15.27
2022-11-03T19:35:57.854Z,12.32
2022-11-03T19:38:24.619Z,14.02
2022-11-03T19:41:09.642Z,16.38
2022-11-03T19:43:36.167Z,12.93
2022-11-03T19:46:03.046Z,13.80
2022-11-03T19:48:31.913Z,11.95
2022-11-03T19:50:58.645Z,12.98
2022-11-03T19:53:28.879Z,17.27
2022-11-03T19:55:55.712Z,13.48
2022-11-03T19:58:23.622Z,13.75
2022-11-03T20:00:50.579Z,13.05
2022-11-03T20:03:17.173Z,12.38
2022-11-03T20:05:49.049Z,13.45
2022-11-03T20:08:18.932Z,12.35
2022-11-03T20:10:47.505Z,13.18
2022-11-03T20:13:19.459Z,18.33
2022-11-03T20:15:45.788Z,16.90
2022-11-03T20:18:12.689Z,14.30
2022-11-03T20:20:39.808Z,19.52
2022-11-03T20:23:06.711Z,15.05
2022-11-03T20:25:34.994Z,14.57
2022-11-03T20:28:20.889Z,13.90
2022-11-03T20:30:48.085Z,15.85
2022-11-03T20:33:15.727Z,15.30
2022-11-03T20:35:42.760Z,14.27
2022-11-03T20:38:11.822Z,15.48
2022-11-03T20:40:38.780Z,18.17
2022-11-03T20:43:05.741Z,14.18
2022-11-03T20:45:32.076Z,13.20
2022-11-03T20:47:58.485Z,18.05
2022-11-03T20:50:25.380Z,15.27
2022-11-03T20:52:52.471Z,11.57
2022-11-03T20:55:25.804Z,19.25
2022-11-03T20:57:52.771Z,11.73
2022-11-03T21:00:21.253Z,11.32
2022-11-03T21:02:48.463Z,16.90
2022-11-03T21:05:22.481Z,18.73
2022-11-03T21:07:48.894Z,14.60
2022-11-03T21:10:20.387Z,15.95
2022-11-03T21:12:47.350Z,14.65
2022-11-03T21:15:36.597Z,16.48
2022-11-03T21:18:21.699Z,12.20
2022-11-03T21:20:48.020Z,16.88
2022-11-03T21:23:22.246Z,15.05
2022-11-03T21:25:49.219Z,19.02
2022-11-03T21:28:16.171Z,13.85
2022-11-03T21:30:42.740Z,15.38
2022-11-03T21:33:09.435Z,17.27
2022-11-03T21:35:35.897Z,14.93
2022-11-03T21:38:02.262Z,13.98
2022-11-03T21:40:28.814Z,17.70
2022-11-03T21:43:13.559Z,15.05
2022-11-03T21:45:39.873Z,20.58
2022-11-03T21:48:24.811Z,13.68
2022-11-03T21:50:56.087Z,16.75
2022-11-03T21:53:22.796Z,17.75
2022-11-03T21:55:49.494Z,14.93
2022-11-03T21:58:16.279Z,16.05
2022-11-03T22:00:42.625Z,14.63
2022-11-03T22:03:09.412Z,19.02
2022-11-03T22:05:36.001Z,17.73
2022-11-03T22:08:02.330Z,18.13
2022-11-03T22:10:28.658Z,17.25
2022-11-03T22:12:55.019Z,17.55
2022-11-03T22:15:40.158Z,16.52
2022-11-03T22:18:07.295Z,17.40
2022-11-03T22:20:54.505Z,21.80
2022-11-03T22:23:39.272Z,17.13
2022-11-03T22:26:24.182Z,21.88
2022-11-03T22:29:10.521Z,28.17
2022-11-03T22:31:42.924Z,26.48
2022-11-03T22:34:28.297Z,23.50
2022-11-03T22:36:54.711Z,25.38
2022-11-03T22:39:39.932Z,31.05
2022-11-03T22:42:24.787Z,34.33
2022-11-03T22:45:09.686Z,29.25
2022-11-03T22:47:36.020Z,28.73
2022-11-03T22:50:02.689Z,31.13
2022-11-03T22:52:29.139Z,30.65
2022-11-03T22:54:55.501Z,34.58
2022-11-03T22:57:21.960Z,31.95
2022-11-03T22:59:48.371Z,29.77
2022-11-03T23:02:14.861Z,34.55
2022-11-03T23:04:41.367Z,31.63
2022-11-03T23:07:07.736Z,31.85
2022-11-03T23:09:34.022Z,36.83
2022-11-03T23:12:00.382Z,32.38
2022-11-03T23:14:46.683Z,29.20
2022-11-03T23:17:13.225Z,33.03
2022-11-03T23:19:58.398Z,31.55
2022-11-03T23:22:24.926Z,29.07
2022-11-03T23:25:00.447Z,29.55
2022-11-03T23:27:27.128Z,32.97
2022-11-03T23:29:53.701Z,31.10
2022-11-03T23:32:20.198Z,31.15
2022-11-03T23:34:46.607Z,34.20
2022-11-03T23:37:13.036Z,34.70
2022-11-03T23:39:39.468Z,36.75
2022-11-03T23:42:05.966Z,36.75
2022-11-03T23:44:52.272Z,29.23
2022-11-03T23:47:37.461Z,30.58
2022-11-03T23:50:03.914Z,28.37
2022-11-03T23:52:30.256Z,32.92
2022-11-03T23:54:56.595Z,29.52
2022-11-03T23:57:41.698Z,29.10
